sensor_id;sensor_type;location;lat;lon;timestamp;pressure;altitude;pressure_sealevel;temperature;humidity
48790;BME280;41718;51.980;5.734;2023-09-07T00:02:21;101872.22;;;15.98;100.00
48790;BME280;41718;51.980;5.734;2023-09-07T00:07:39;101866.13;;;15.96;100.00
48790;BME280;41718;51.980;5.734;2023-09-07T00:12:40;101865.22;;;15.91;100.00
48790;BME280;41718;51.980;5.734;2023-09-07T00:17:42;101864.31;;;15.87;100.00
48790;BME280;41718;51.980;5.734;2023-09-07T00:22:44;101860.75;;;15.81;100.00
48790;BME280;41718;51.980;5.734;2023-09-07T00:27:46;101858.09;;;15.73;100.00
48790;BME280;41718;51.980;5.734;2023-09-07T00:32:47;101855.44;;;15.69;100.00
48790;BME280;41718;51.980;5.734;2023-09-07T00:37:49;101846.72;;;15.68;100.00
48790;BME280;41718;51.980;5.734;2023-09-07T00:42:50;101836.25;;;15.63;100.00
48790;BME280;41718;51.980;5.734;2023-09-07T00:47:52;101841.41;;;15.62;100.00
48790;BME280;41718;51.980;5.734;2023-09-07T00:52:54;101838.75;;;15.56;100.00
48790;BME280;41718;51.980;5.734;2023-09-07T00:57:56;101833.47;;;15.50;100.00
48790;BME280;41718;51.980;5.734;2023-09-07T01:02:58;101841.13;;;15.36;100.00
48790;BME280;41718;51.980;5.734;2023-09-07T01:08:09;101828.03;;;15.31;100.00
48790;BME280;41718;51.980;5.734;2023-09-07T01:13:12;101828.88;;;15.29;100.00
48790;BME280;41718;51.980;5.734;2023-09-07T01:18:13;101834.91;;;15.22;100.00
48790;BME280;41718;51.980;5.734;2023-09-07T01:23:22;101834.06;;;15.26;100.00
48790;BME280;41718;51.980;5.734;2023-09-07T01:28:24;101831.38;;;15.20;100.00
48790;BME280;41718;51.980;5.734;2023-09-07T01:33:27;101824.34;;;15.14;100.00
48790;BME280;41718;51.980;5.734;2023-09-07T01:38:28;101831.31;;;15.12;100.00
48790;BME280;41718;51.980;5.734;2023-09-07T01:43:32;101825.16;;;15.08;100.00
48790;BME280;41718;51.980;5.734;2023-09-07T01:48:34;101831.09;;;14.95;100.00
48790;BME280;41718;51.980;5.734;2023-09-07T01:53:36;101836.22;;;14.91;100.00
48790;BME280;41718;51.980;5.734;2023-09-07T01:58:38;101837.09;;;14.88;100.00
48790;BME280;41718;51.980;5.734;2023-09-07T02:03:40;101837.03;;;14.85;100.00
48790;BME280;41718;51.980;5.734;2023-09-07T02:08:41;101831.72;;;14.77;100.00
48790;BME280;41718;51.980;5.734;2023-09-07T02:13:45;101862.84;;;14.68;100.00
48790;BME280;41718;51.980;5.734;2023-09-07T02:18:49;101868.06;;;14.68;100.00
48790;BME280;41718;51.980;5.734;2023-09-07T02:23:51;101857.53;;;14.61;100.00
48790;BME280;41718;51.980;5.734;2023-09-07T02:28:53;101860.91;;;14.53;100.00
48790;BME280;41718;51.980;5.734;2023-09-07T02:33:55;101857.34;;;14.48;100.00
48790;BME280;41718;51.980;5.734;2023-09-07T02:38:57;101857.16;;;14.36;100.00
48790;BME280;41718;51.980;5.734;2023-09-07T02:43:58;101856.28;;;14.36;100.00
48790;BME280;41718;51.980;5.734;2023-09-07T02:49:00;101860.53;;;14.30;100.00
48790;BME280;41718;51.980;5.734;2023-09-07T02:54:02;101852.63;;;14.24;100.00
48790;BME280;41718;51.980;5.734;2023-09-07T02:59:04;101856.88;;;14.19;100.00
48790;BME280;41718;51.980;5.734;2023-09-07T03:04:06;101861.13;;;14.16;100.00
48790;BME280;41718;51.980;5.734;2023-09-07T03:09:08;101866.25;;;14.11;100.00
48790;BME280;41718;51.980;5.734;2023-09-07T03:14:10;101864.44;;;14.05;100.00
48790;BME280;41718;51.980;5.734;2023-09-07T03:19:11;101860.09;;;14.04;100.00
48790;BME280;41718;51.980;5.734;2023-09-07T03:24:13;101863.38;;;13.94;100.00
48790;BME280;41718;51.980;5.734;2023-09-07T03:29:16;101853.78;;;13.90;100.00
48790;BME280;41718;51.980;5.734;2023-09-07T03:34:18;101851.88;;;13.80;100.00
48790;BME280;41718;51.980;5.734;2023-09-07T03:39:21;101852.53;;;13.70;100.00
48790;BME280;41718;51.980;5.734;2023-09-07T03:44:25;101845.59;;;13.70;100.00
48790;BME280;41718;51.980;5.734;2023-09-07T03:49:26;101840.97;;;13.54;100.00
48790;BME280;41718;51.980;5.734;2023-09-07T03:54:30;101829.81;;;13.61;100.00
48790;BME280;41718;51.980;5.734;2023-09-07T03:59:32;101818.50;;;13.56;100.00
48790;BME280;41718;51.980;5.734;2023-09-07T04:04:34;101811.41;;;13.49;100.00
48790;BME280;41718;51.980;5.734;2023-09-07T04:09:36;101797.44;;;13.42;100.00
48790;BME280;41718;51.980;5.734;2023-09-07T04:14:37;101799.06;;;13.37;100.00
48790;BME280;41718;51.980;5.734;2023-09-07T04:19:39;101796.53;;;13.40;100.00
48790;BME280;41718;51.980;5.734;2023-09-07T04:24:41;101795.50;;;13.32;100.00
48790;BME280;41718;51.980;5.734;2023-09-07T04:29:43;101796.31;;;13.30;100.00
48790;BME280;41718;51.980;5.734;2023-09-07T04:34:44;101785.09;;;13.32;100.00
48790;BME280;41718;51.980;5.734;2023-09-07T04:39:53;101776.16;;;13.18;100.00
48790;BME280;41718;51.980;5.734;2023-09-07T04:44:55;101780.63;;;13.23;100.00
48790;BME280;41718;51.980;5.734;2023-09-07T04:49:56;101744.13;;;13.19;100.00
48790;BME280;41718;51.980;5.734;2023-09-07T04:54:58;101745.81;;;13.17;100.00
48790;BME280;41718;51.980;5.734;2023-09-07T04:59:59;101734.56;;;13.16;100.00
48790;BME280;41718;51.980;5.734;2023-09-07T05:05:01;101743.16;;;13.14;100.00
48790;BME280;41718;51.980;5.734;2023-09-07T05:10:04;101746.59;;;13.11;100.00
48790;BME280;41718;51.980;5.734;2023-09-07T05:15:08;101747.38;;;13.09;100.00
48790;BME280;41718;51.980;5.734;2023-09-07T05:20:10;101753.63;;;13.17;100.00
48790;BME280;41718;51.980;5.734;2023-09-07T05:25:12;101750.09;;;13.15;100.00
48790;BME280;41718;51.980;5.734;2023-09-07T05:30:13;101753.56;;;13.15;100.00
48790;BME280;41718;51.980;5.734;2023-09-07T05:35:15;101750.09;;;13.15;100.00
48790;BME280;41718;51.980;5.734;2023-09-07T05:40:18;101740.03;;;13.32;100.00
48790;BME280;41718;51.980;5.734;2023-09-07T05:45:20;101750.81;;;13.51;100.00
48790;BME280;41718;51.980;5.734;2023-09-07T05:50:22;101748.31;;;13.58;100.00
48790;BME280;41718;51.980;5.734;2023-09-07T05:55:23;101744.25;;;13.73;100.00
48790;BME280;41718;51.980;5.734;2023-09-07T06:00:25;101742.75;;;13.89;100.00
48790;BME280;41718;51.980;5.734;2023-09-07T06:05:27;101745.66;;;14.08;100.00
48790;BME280;41718;51.980;5.734;2023-09-07T06:10:29;101740.78;;;14.32;100.00
48790;BME280;41718;51.980;5.734;2023-09-07T06:15:31;101730.81;;;14.63;100.00
48790;BME280;41718;51.980;5.734;2023-09-07T06:20:33;101734.41;;;14.74;100.00
48790;BME280;41718;51.980;5.734;2023-09-07T06:25:35;101739.03;;;14.96;100.00
48790;BME280;41718;51.980;5.734;2023-09-07T06:30:37;101739.38;;;15.31;100.00
48790;BME280;41718;51.980;5.734;2023-09-07T06:35:39;101732.56;;;15.44;100.00
48790;BME280;41718;51.980;5.734;2023-09-07T06:40:40;101733.66;;;15.66;100.00
48790;BME280;41718;51.980;5.734;2023-09-07T06:45:42;101733.94;;;16.00;100.00
48790;BME280;41718;51.980;5.734;2023-09-07T06:50:43;101729.78;;;16.34;100.00
48790;BME280;41718;51.980;5.734;2023-09-07T06:55:45;101725.59;;;16.68;100.00
48790;BME280;41718;51.980;5.734;2023-09-07T07:00:47;101717.03;;;17.13;100.00
48790;BME280;41718;51.980;5.734;2023-09-07T07:05:49;101701.41;;;17.76;100.00
48790;BME280;41718;51.980;5.734;2023-09-07T07:10:51;101701.22;;;18.49;100.00
48790;BME280;41718;51.980;5.734;2023-09-07T07:15:53;101712.31;;;19.06;100.00
48790;BME280;41718;51.980;5.734;2023-09-07T07:20:54;101763.56;;;19.59;100.00
48790;BME280;41718;51.980;5.734;2023-09-07T07:25:56;101836.78;;;20.01;100.00
48790;BME280;41718;51.980;5.734;2023-09-07T07:30:58;101921.31;;;20.59;100.00
48790;BME280;41718;51.980;5.734;2023-09-07T07:35:59;101962.63;;;20.42;100.00
48790;BME280;41718;51.980;5.734;2023-09-07T07:46:02;101875.22;;;21.05;100.00
48790;BME280;41718;51.980;5.734;2023-09-07T07:51:04;101826.91;;;21.09;100.00
48790;BME280;41718;51.980;5.734;2023-09-07T07:56:19;101784.41;;;21.38;100.00
48790;BME280;41718;51.980;5.734;2023-09-07T08:01:21;101766.06;;;21.87;100.00
48790;BME280;41718;51.980;5.734;2023-09-07T08:06:23;101711.44;;;21.97;100.00
48790;BME280;41718;51.980;5.734;2023-09-07T08:11:24;101684.72;;;22.17;100.00
48790;BME280;41718;51.980;5.734;2023-09-07T08:16:27;101582.41;;;22.36;100.00
48790;BME280;41718;51.980;5.734;2023-09-07T08:21:29;101539.38;;;22.32;100.00
48790;BME280;41718;51.980;5.734;2023-09-07T08:26:32;101436.91;;;22.54;100.00
48790;BME280;41718;51.980;5.734;2023-09-07T08:31:36;101342.25;;;22.74;100.00
48790;BME280;41718;51.980;5.734;2023-09-07T08:36:40;101300.88;;;23.08;100.00
48790;BME280;41718;51.980;5.734;2023-09-07T08:41:43;101427.47;;;23.42;100.00
48790;BME280;41718;51.980;5.734;2023-09-07T08:47:02;101461.00;;;23.40;100.00
48790;BME280;41718;51.980;5.734;2023-09-07T08:52:06;101418.16;;;23.30;100.00
48790;BME280;41718;51.980;5.734;2023-09-07T08:57:08;101383.38;;;23.45;100.00
48790;BME280;41718;51.980;5.734;2023-09-07T09:02:11;101392.47;;;23.65;100.00
48790;BME280;41718;51.980;5.734;2023-09-07T09:07:13;101373.47;;;23.82;100.00
48790;BME280;41718;51.980;5.734;2023-09-07T09:12:15;101403.31;;;23.85;100.00
48790;BME280;41718;51.980;5.734;2023-09-07T09:17:17;101439.28;;;23.91;100.00
48790;BME280;41718;51.980;5.734;2023-09-07T09:22:18;101444.69;;;23.86;100.00
48790;BME280;41718;51.980;5.734;2023-09-07T09:27:21;101430.66;;;24.12;100.00
48790;BME280;41718;51.980;5.734;2023-09-07T09:32:23;101428.88;;;24.13;100.00
48790;BME280;41718;51.980;5.734;2023-09-07T09:37:24;101410.38;;;24.41;100.00
48790;BME280;41718;51.980;5.734;2023-09-07T09:42:26;101327.66;;;25.09;100.00
48790;BME280;41718;51.980;5.734;2023-09-07T09:47:30;101240.13;;;25.12;100.00
48790;BME280;41718;51.980;5.734;2023-09-07T09:52:34;101380.00;;;25.71;100.00
48790;BME280;41718;51.980;5.734;2023-09-07T09:57:36;101532.81;;;25.74;100.00
48790;BME280;41718;51.980;5.734;2023-09-07T10:02:39;101557.38;;;26.48;100.00
48790;BME280;41718;51.980;5.734;2023-09-07T10:07:47;101584.19;;;26.85;100.00
48790;BME280;41718;51.980;5.734;2023-09-07T10:12:52;101601.47;;;27.17;100.00
48790;BME280;41718;51.980;5.734;2023-09-07T10:18:10;101630.75;;;27.16;100.00
48790;BME280;41718;51.980;5.734;2023-09-07T10:23:13;101668.25;;;27.30;100.00
48790;BME280;41718;51.980;5.734;2023-09-07T10:28:23;101700.31;;;27.68;100.00
48790;BME280;41718;51.980;5.734;2023-09-07T10:33:25;101718.78;;;27.93;100.00
48790;BME280;41718;51.980;5.734;2023-09-07T10:38:27;101724.88;;;28.36;100.00
48790;BME280;41718;51.980;5.734;2023-09-07T10:43:30;101729.66;;;28.48;100.00
48790;BME280;41718;51.980;5.734;2023-09-07T10:48:33;101739.16;;;28.72;100.00
48790;BME280;41718;51.980;5.734;2023-09-07T10:53:35;101740.66;;;28.20;100.00
48790;BME280;41718;51.980;5.734;2023-09-07T10:58:37;101737.31;;;28.93;100.00
48790;BME280;41718;51.980;5.734;2023-09-07T11:03:43;101731.94;;;28.56;100.00
48790;BME280;41718;51.980;5.734;2023-09-07T11:08:48;101738.44;;;28.88;100.00
48790;BME280;41718;51.980;5.734;2023-09-07T11:13:50;101745.50;;;29.44;100.00
48790;BME280;41718;51.980;5.734;2023-09-07T11:18:52;101744.94;;;28.82;100.00
48790;BME280;41718;51.980;5.734;2023-09-07T11:23:57;101745.75;;;29.39;100.00
48790;BME280;41718;51.980;5.734;2023-09-07T11:28:58;101734.31;;;29.54;100.00
48790;BME280;41718;51.980;5.734;2023-09-07T11:34:19;101728.63;;;29.79;100.00
48790;BME280;41718;51.980;5.734;2023-09-07T11:39:26;101725.41;;;29.90;100.00
48790;BME280;41718;51.980;5.734;2023-09-07T11:44:28;101726.66;;;29.29;100.00
48790;BME280;41718;51.980;5.734;2023-09-07T11:49:30;101712.34;;;29.13;100.00
48790;BME280;41718;51.980;5.734;2023-09-07T11:54:37;101710.34;;;29.36;100.00
48790;BME280;41718;51.980;5.734;2023-09-07T11:59:43;101699.59;;;29.37;100.00
48790;BME280;41718;51.980;5.734;2023-09-07T12:04:59;101698.78;;;29.54;100.00
48790;BME280;41718;51.980;5.734;2023-09-07T12:10:05;101696.47;;;29.46;100.00
48790;BME280;41718;51.980;5.734;2023-09-07T12:15:17;101688.69;;;29.24;100.00
48790;BME280;41718;51.980;5.734;2023-09-07T12:20:22;101689.66;;;29.41;100.00
48790;BME280;41718;51.980;5.734;2023-09-07T12:25:31;101679.78;;;29.60;100.00
48790;BME280;41718;51.980;5.734;2023-09-07T12:30:34;101686.91;;;29.42;100.00
48790;BME280;41718;51.980;5.734;2023-09-07T12:35:36;101677.38;;;29.73;100.00
48790;BME280;41718;51.980;5.734;2023-09-07T12:40:38;101672.81;;;29.75;100.00
48790;BME280;41718;51.980;5.734;2023-09-07T12:45:42;101668.44;;;29.74;100.00
48790;BME280;41718;51.980;5.734;2023-09-07T12:50:58;101671.09;;;29.74;100.00
48790;BME280;41718;51.980;5.734;2023-09-07T12:56:02;101671.88;;;29.76;100.00
48790;BME280;41718;51.980;5.734;2023-09-07T13:01:05;101669.97;;;29.78;100.00
48790;BME280;41718;51.980;5.734;2023-09-07T13:06:07;101667.13;;;29.98;100.00
48790;BME280;41718;51.980;5.734;2023-09-07T13:11:08;101662.59;;;29.83;100.00
48790;BME280;41718;51.980;5.734;2023-09-07T13:16:10;101652.13;;;30.13;100.00
48790;BME280;41718;51.980;5.734;2023-09-07T13:21:13;101651.34;;;29.94;100.00
48790;BME280;41718;51.980;5.734;2023-09-07T13:26:14;101651.00;;;29.84;100.00
48790;BME280;41718;51.980;5.734;2023-09-07T13:31:18;101643.72;;;29.53;100.00
48790;BME280;41718;51.980;5.734;2023-09-07T13:36:20;101630.81;;;29.44;100.00
48790;BME280;41718;51.980;5.734;2023-09-07T13:41:24;101627.91;;;29.31;100.00
48790;BME280;41718;51.980;5.734;2023-09-07T13:46:26;101625.88;;;29.19;100.00
48790;BME280;41718;51.980;5.734;2023-09-07T13:51:28;101630.03;;;29.07;100.00
48790;BME280;41718;51.980;5.734;2023-09-07T13:56:33;101622.94;;;28.89;100.00
48790;BME280;41718;51.980;5.734;2023-09-07T14:01:35;101619.81;;;28.98;100.00
48790;BME280;41718;51.980;5.734;2023-09-07T14:06:37;101616.78;;;28.87;100.00
48790;BME280;41718;51.980;5.734;2023-09-07T14:11:38;101622.59;;;28.77;100.00
48790;BME280;41718;51.980;5.734;2023-09-07T14:16:40;101614.91;;;28.71;100.00
48790;BME280;41718;51.980;5.734;2023-09-07T14:21:41;101617.41;;;28.93;100.00
48790;BME280;41718;51.980;5.734;2023-09-07T14:26:43;101610.50;;;28.70;100.00
48790;BME280;41718;51.980;5.734;2023-09-07T14:31:45;101613.91;;;28.55;100.00
48790;BME280;41718;51.980;5.734;2023-09-07T14:36:48;101606.09;;;28.69;100.00
48790;BME280;41718;51.980;5.734;2023-09-07T14:41:56;101603.75;;;28.63;100.00
48790;BME280;41718;51.980;5.734;2023-09-07T14:47:01;101613.41;;;28.47;100.00
48790;BME280;41718;51.980;5.734;2023-09-07T14:52:02;101603.97;;;28.40;100.00
48790;BME280;41718;51.980;5.734;2023-09-07T14:57:04;101604.44;;;28.29;100.00
48790;BME280;41718;51.980;5.734;2023-09-07T15:02:06;101603.81;;;28.24;100.00
48790;BME280;41718;51.980;5.734;2023-09-07T15:07:07;101602.00;;;28.24;100.00
48790;BME280;41718;51.980;5.734;2023-09-07T15:12:09;101602.81;;;28.26;100.00
48790;BME280;41718;51.980;5.734;2023-09-07T15:17:12;101599.13;;;28.29;100.00
48790;BME280;41718;51.980;5.734;2023-09-07T15:22:14;101594.97;;;28.05;100.00
48790;BME280;41718;51.980;5.734;2023-09-07T15:27:15;101591.81;;;28.15;100.00
48790;BME280;41718;51.980;5.734;2023-09-07T15:32:18;101586.78;;;28.09;100.00
48790;BME280;41718;51.980;5.734;2023-09-07T15:37:20;101579.28;;;27.98;100.00
48790;BME280;41718;51.980;5.734;2023-09-07T15:42:22;101573.59;;;28.06;100.00
48790;BME280;41718;51.980;5.734;2023-09-07T15:47:23;101577.75;;;28.32;100.00
48790;BME280;41718;51.980;5.734;2023-09-07T15:52:25;101574.53;;;28.05;100.00
48790;BME280;41718;51.980;5.734;2023-09-07T15:57:27;101567.53;;;27.84;100.00
48790;BME280;41718;51.980;5.734;2023-09-07T16:02:29;101571.88;;;27.86;100.00
48790;BME280;41718;51.980;5.734;2023-09-07T16:07:30;101563.66;;;27.91;100.00
48790;BME280;41718;51.980;5.734;2023-09-07T16:12:32;101551.34;;;27.69;100.00
48790;BME280;41718;51.980;5.734;2023-09-07T16:17:34;101543.38;;;27.69;100.00
48790;BME280;41718;51.980;5.734;2023-09-07T16:22:36;101541.94;;;27.61;100.00
48790;BME280;41718;51.980;5.734;2023-09-07T16:27:38;101543.09;;;27.55;100.00
48790;BME280;41718;51.980;5.734;2023-09-07T16:32:42;101533.59;;;27.50;100.00
48790;BME280;41718;51.980;5.734;2023-09-07T16:37:44;101535.66;;;27.43;100.00
48790;BME280;41718;51.980;5.734;2023-09-07T16:42:45;101534.94;;;27.39;100.00
48790;BME280;41718;51.980;5.734;2023-09-07T16:47:47;101539.66;;;27.33;100.00
48790;BME280;41718;51.980;5.734;2023-09-07T16:52:49;101529.75;;;27.16;100.00
48790;BME280;41718;51.980;5.734;2023-09-07T16:57:51;101537.22;;;27.08;100.00
48790;BME280;41718;51.980;5.734;2023-09-07T17:02:53;101529.53;;;27.00;100.00
48790;BME280;41718;51.980;5.734;2023-09-07T17:07:54;101525.81;;;26.84;100.00
48790;BME280;41718;51.980;5.734;2023-09-07T17:12:56;101529.84;;;26.72;100.00
48790;BME280;41718;51.980;5.734;2023-09-07T17:17:58;101519.84;;;26.57;100.00
48790;BME280;41718;51.980;5.734;2023-09-07T17:23:01;101520.03;;;26.52;100.00
48790;BME280;41718;51.980;5.734;2023-09-07T17:28:03;101516.03;;;26.42;100.00
48790;BME280;41718;51.980;5.734;2023-09-07T17:33:05;101514.41;;;26.16;100.00
48790;BME280;41718;51.980;5.734;2023-09-07T17:38:07;101507.88;;;26.01;100.00
48790;BME280;41718;51.980;5.734;2023-09-07T17:43:08;101506.69;;;25.86;100.00
48790;BME280;41718;51.980;5.734;2023-09-07T17:48:10;101501.97;;;25.70;100.00
48790;BME280;41718;51.980;5.734;2023-09-07T17:53:12;101480.91;;;25.43;100.00
48790;BME280;41718;51.980;5.734;2023-09-07T17:58:14;101448.34;;;25.16;100.00
48790;BME280;41718;51.980;5.734;2023-09-07T18:03:15;101362.28;;;24.78;100.00
48790;BME280;41718;51.980;5.734;2023-09-07T18:08:17;101179.50;;;24.11;100.00
48790;BME280;41718;51.980;5.734;2023-09-07T18:13:19;100808.28;;;23.72;100.00
48790;BME280;41718;51.980;5.734;2023-09-07T18:18:21;100659.28;;;23.54;100.00
48790;BME280;41718;51.980;5.734;2023-09-07T18:23:23;100767.94;;;23.45;100.00
48790;BME280;41718;51.980;5.734;2023-09-07T18:28:28;100995.75;;;23.27;100.00
48790;BME280;41718;51.980;5.734;2023-09-07T18:33:31;101211.38;;;23.00;100.00
48790;BME280;41718;51.980;5.734;2023-09-07T18:38:33;101336.25;;;22.69;100.00
48790;BME280;41718;51.980;5.734;2023-09-07T18:43:37;101431.69;;;22.51;100.00
48790;BME280;41718;51.980;5.734;2023-09-07T18:48:49;101453.28;;;22.67;100.00
48790;BME280;41718;51.980;5.734;2023-09-07T18:53:51;101451.59;;;22.64;100.00
48790;BME280;41718;51.980;5.734;2023-09-07T18:58:56;101483.84;;;22.01;100.00
48790;BME280;41718;51.980;5.734;2023-09-07T19:04:12;101510.25;;;21.55;100.00
48790;BME280;41718;51.980;5.734;2023-09-07T19:09:16;101493.13;;;21.34;100.00
48790;BME280;41718;51.980;5.734;2023-09-07T19:14:23;101241.69;;;21.14;100.00
48790;BME280;41718;51.980;5.734;2023-09-07T19:19:27;101210.41;;;21.02;100.00
48790;BME280;41718;51.980;5.734;2023-09-07T19:24:29;101164.19;;;20.90;100.00
48790;BME280;41718;51.980;5.734;2023-09-07T19:29:30;101129.47;;;20.76;100.00
48790;BME280;41718;51.980;5.734;2023-09-07T19:34:35;101165.66;;;20.63;100.00
48790;BME280;41718;51.980;5.734;2023-09-07T19:39:38;101173.88;;;20.48;100.00
48790;BME280;41718;51.980;5.734;2023-09-07T19:44:40;101180.13;;;20.41;100.00
48790;BME280;41718;51.980;5.734;2023-09-07T19:49:43;101180.31;;;20.30;100.00
48790;BME280;41718;51.980;5.734;2023-09-07T19:54:47;101162.97;;;20.23;100.00
48790;BME280;41718;51.980;5.734;2023-09-07T19:59:50;101177.19;;;20.11;100.00
48790;BME280;41718;51.980;5.734;2023-09-07T20:04:52;101194.16;;;19.95;100.00
48790;BME280;41718;51.980;5.734;2023-09-07T20:09:56;101173.69;;;19.65;100.00
48790;BME280;41718;51.980;5.734;2023-09-07T20:14:58;101170.28;;;19.58;100.00
48790;BME280;41718;51.980;5.734;2023-09-07T20:20:05;101178.44;;;19.40;100.00
48790;BME280;41718;51.980;5.734;2023-09-07T20:25:07;101178.53;;;19.33;100.00
48790;BME280;41718;51.980;5.734;2023-09-07T20:30:10;101184.03;;;19.17;100.00
48790;BME280;41718;51.980;5.734;2023-09-07T20:35:12;101206.91;;;19.09;100.00
48790;BME280;41718;51.980;5.734;2023-09-07T20:40:19;101223.69;;;18.97;100.00
48790;BME280;41718;51.980;5.734;2023-09-07T20:45:21;101243.91;;;18.87;100.00
48790;BME280;41718;51.980;5.734;2023-09-07T20:50:30;101260.72;;;18.71;100.00
48790;BME280;41718;51.980;5.734;2023-09-07T20:55:32;101271.28;;;18.63;100.00
48790;BME280;41718;51.980;5.734;2023-09-07T21:00:34;101282.78;;;18.50;100.00
48790;BME280;41718;51.980;5.734;2023-09-07T21:05:35;101302.97;;;18.40;100.00
48790;BME280;41718;51.980;5.734;2023-09-07T21:10:37;101310.13;;;18.20;100.00
48790;BME280;41718;51.980;5.734;2023-09-07T21:15:39;101352.97;;;18.13;100.00
48790;BME280;41718;51.980;5.734;2023-09-07T21:20:41;101543.38;;;18.00;100.00
48790;BME280;41718;51.980;5.734;2023-09-07T21:25:43;101581.81;;;17.89;100.00
48790;BME280;41718;51.980;5.734;2023-09-07T21:30:45;101578.31;;;17.85;100.00
48790;BME280;41718;51.980;5.734;2023-09-07T21:35:47;101563.50;;;17.80;100.00
48790;BME280;41718;51.980;5.734;2023-09-07T21:40:52;101569.66;;;17.77;100.00
48790;BME280;41718;51.980;5.734;2023-09-07T21:45:54;101551.31;;;17.77;100.00
48790;BME280;41718;51.980;5.734;2023-09-07T21:51:00;101552.19;;;17.74;100.00
48790;BME280;41718;51.980;5.734;2023-09-07T21:56:02;101573.16;;;17.41;100.00
48790;BME280;41718;51.980;5.734;2023-09-07T22:01:07;101574.94;;;17.37;100.00
48790;BME280;41718;51.980;5.734;2023-09-07T22:06:11;101579.31;;;17.21;100.00
48790;BME280;41718;51.980;5.734;2023-09-07T22:11:13;101581.06;;;17.19;100.00
48790;BME280;41718;51.980;5.734;2023-09-07T22:16:23;101588.00;;;17.13;100.00
48790;BME280;41718;51.980;5.734;2023-09-07T22:21:28;101580.16;;;17.13;100.00
48790;BME280;41718;51.980;5.734;2023-09-07T22:26:30;101582.81;;;17.14;100.00
48790;BME280;41718;51.980;5.734;2023-09-07T22:31:32;101575.84;;;17.03;100.00
48790;BME280;41718;51.980;5.734;2023-09-07T22:36:34;101581.91;;;16.88;100.00
48790;BME280;41718;51.980;5.734;2023-09-07T22:41:39;101568.81;;;16.79;100.00
48790;BME280;41718;51.980;5.734;2023-09-07T22:46:44;101566.22;;;16.73;100.00
48790;BME280;41718;51.980;5.734;2023-09-07T22:51:52;101563.59;;;16.68;100.00
48790;BME280;41718;51.980;5.734;2023-09-07T22:56:54;101562.69;;;16.66;100.00
48790;BME280;41718;51.980;5.734;2023-09-07T23:01:58;101556.56;;;16.56;100.00
48790;BME280;41718;51.980;5.734;2023-09-07T23:07:00;101549.59;;;16.55;100.00
48790;BME280;41718;51.980;5.734;2023-09-07T23:12:02;101556.59;;;16.70;100.00
48790;BME280;41718;51.980;5.734;2023-09-07T23:17:05;101568.75;;;16.50;100.00
48790;BME280;41718;51.980;5.734;2023-09-07T23:22:06;101569.63;;;16.46;100.00
48790;BME280;41718;51.980;5.734;2023-09-07T23:27:08;101560.13;;;16.75;100.00
48790;BME280;41718;51.980;5.734;2023-09-07T23:32:09;101568.34;;;18.62;100.00
48790;BME280;41718;51.980;5.734;2023-09-07T23:37:11;101613.00;;;18.45;100.00
48790;BME280;41718;51.980;5.734;2023-09-07T23:42:13;101632.28;;;18.31;100.00
48790;BME280;41718;51.980;5.734;2023-09-07T23:47:14;101655.81;;;18.41;100.00
48790;BME280;41718;51.980;5.734;2023-09-07T23:52:16;101675.16;;;18.07;100.00
48790;BME280;41718;51.980;5.734;2023-09-07T23:57:18;101669.84;;;18.28;100.00
